Morgenster — PHMY — position and weather

sailwx.info

Track history (hours):
 
Tides and Currents Weather Stations Pressure Air Temp Water Temp Dewpoint Dewpoint Depression Visibility Wind Speed Wind Dir Waves Ship Positions

Morgenster

Last reported at 2019-Aug-24 19:24 UTC. Time now 2019-Aug-24 19:57 UTC.
Position N 52°23' E 004°53'.

Length 38 m; draft 2.4 m.

Type: Sailing vessel. MMSI: 245136000.

Date/timePositionNaut miles runAvg speedWind from/ knotsBaromVisibWave heightAir tempDewpointWater temp
2019-Aug-24 19:24N 52°23' E 004°53'0 0.0
2019-Aug-24 19:00N 52°23' E 004°53'0 0.0
2019-Aug-24 18:03N 52°23' E 004°53'0 0.0
2019-Aug-24 17:51N 52°23' E 004°53'0 0.0
2019-Aug-24 17:30N 52°23' E 004°53'0 0.0
2019-Aug-24 16:57N 52°23' E 004°53'0 0.0
2019-Aug-24 15:57N 52°23' E 004°53'0 0.0
2019-Aug-24 15:24N 52°23' E 004°53'0 1.3
2019-Aug-24 15:00N 52°23' E 004°54'2 4.7
2019-Aug-24 14:31N 52°23' E 004°58'1 1.9
2019-Aug-24 14:00N 52°22' E 004°59'2 5.0
2019-Aug-24 13:30N 52°23' E 005°03'3 5.3
2019-Aug-24 13:00N 52°25' E 005°06'2 4.6
2019-Aug-24 12:30N 52°27' E 005°08'1 2.7
2019-Aug-24 12:00N 52°27' E 005°10'1 1.3
2019-Aug-24 11:30N 52°28' E 005°10'0 0.6
2019-Aug-24 11:01N 52°28' E 005°10'1 1.8
2019-Aug-24 10:30N 52°29' E 005°10'1 1.9
2019-Aug-24 10:00N 52°30' E 005°10'1 1.4
2019-Aug-24 09:31N 52°31' E 005°10'2 4.6
2019-Aug-24 09:00N 52°30' E 005°06'2 3.0
2019-Aug-24 08:30N 52°28' E 005°05'1 1.7
2019-Aug-24 08:00N 52°28' E 005°06'0 0.3
2019-Aug-24 07:30N 52°28' E 005°06'0 0.0
2019-Aug-24 06:57N 52°28' E 005°06'0 0.0
2019-Aug-24 06:27N 52°28' E 005°06'0 0.0
2019-Aug-24 06:00N 52°28' E 005°06'0 0.0
2019-Aug-24 05:30N 52°28' E 005°06'0 0.0
2019-Aug-24 05:00N 52°28' E 005°06'0 0.0
2019-Aug-24 04:27N 52°28' E 005°06'0 0.0
2019-Aug-24 04:00N 52°28' E 005°06'0 0.0
2019-Aug-24 03:30N 52°28' E 005°06'0 0.0
2019-Aug-24 02:54N 52°28' E 005°06'0 0.0
2019-Aug-24 02:24N 52°28' E 005°06'0 0.0
2019-Aug-24 01:57N 52°28' E 005°06'0 0.0
2019-Aug-24 01:30N 52°28' E 005°06'0 0.0
2019-Aug-24 00:57N 52°28' E 005°06'0 0.0
2019-Aug-24 00:21N 52°28' E 005°06'0 0.0
2019-Aug-24 00:00N 52°28' E 005°06'0 0.0
2019-Aug-23 23:30N 52°28' E 005°06'0 0.0
2019-Aug-23 22:57N 52°28' E 005°06'0 0.0
2019-Aug-23 22:27N 52°28' E 005°06'0 0.0
2019-Aug-23 22:00N 52°28' E 005°06'0 0.0
2019-Aug-23 21:30N 52°28' E 005°06'0 0.0
2019-Aug-23 21:00N 52°28' E 005°06'0 0.0
2019-Aug-23 20:30N 52°28' E 005°06'0 0.0
2019-Aug-23 20:00N 52°28' E 005°06'0 0.0
2019-Aug-23 19:27N 52°28' E 005°06'0 0.0
2019-Aug-23 19:00N 52°28' E 005°06'0 0.0
2019-Aug-23 18:30N 52°28' E 005°06'0 0.0
2019-Aug-23 18:00N 52°28' E 005°06'0 0.0
2019-Aug-23 17:30N 52°28' E 005°06'0 0.0
2019-Aug-23 16:57N 52°28' E 005°06'0 0.0
2019-Aug-23 16:30N 52°28' E 005°06'0 0.0
2019-Aug-23 16:00N 52°28' E 005°06'0 0.0
2019-Aug-23 15:30N 52°28' E 005°06'0 0.0
2019-Aug-23 15:00N 52°28' E 005°06'0 0.0
2019-Aug-23 14:30N 52°28' E 005°06'0 0.0
2019-Aug-23 14:00N 52°28' E 005°06'0 0.0
2019-Aug-23 13:30N 52°28' E 005°06'0 0.0
2019-Aug-23 12:57N 52°28' E 005°06'0 0.0
2019-Aug-23 12:30N 52°28' E 005°06'0 0.0
2019-Aug-23 12:00N 52°28' E 005°06'0 0.0
2019-Aug-23 11:30N 52°28' E 005°06'1 2.0
2019-Aug-23 11:00N 52°28' E 005°05'2 4.7
2019-Aug-23 10:30N 52°31' E 005°06'2 4.9
2019-Aug-23 10:00N 52°33' E 005°05'3 5.1
2019-Aug-23 09:30N 52°36' E 005°05'3 4.9
2019-Aug-23 08:58N 52°38' E 005°04'0 0.0
2019-Aug-23 08:25N 52°38' E 005°04'0 0.0
2019-Aug-23 07:55N 52°38' E 005°04'0 0.0
2019-Aug-23 07:22N 52°38' E 005°04'0 0.0
2019-Aug-23 06:58N 52°38' E 005°04'0 0.0
2019-Aug-23 06:25N 52°38' E 005°04'0 0.0
2019-Aug-23 05:58N 52°38' E 005°04'0 0.0
2019-Aug-23 05:25N 52°38' E 005°04'0 0.0
2019-Aug-23 04:58N 52°38' E 005°04'0 0.0
2019-Aug-23 04:28N 52°38' E 005°04'0 0.0
2019-Aug-23 03:58N 52°38' E 005°04'0 0.0
2019-Aug-23 03:28N 52°38' E 005°04'0 0.0
2019-Aug-23 02:43N 52°38' E 005°04'0 0.0
2019-Aug-23 02:28N 52°38' E 005°04'0 0.0
2019-Aug-23 01:55N 52°38' E 005°04'0 0.0
2019-Aug-23 01:28N 52°38' E 005°04'0 0.0
2019-Aug-23 00:58N 52°38' E 005°04'0 0.0
2019-Aug-23 00:28N 52°38' E 005°04'0 0.0
2019-Aug-22 23:55N 52°38' E 005°04'0 0.0
2019-Aug-22 23:28N 52°38' E 005°04'0 0.0
2019-Aug-22 22:58N 52°38' E 005°04'0 0.0
2019-Aug-22 22:28N 52°38' E 005°04'0 0.0
2019-Aug-22 21:58N 52°38' E 005°04'0 0.0
2019-Aug-22 21:28N 52°38' E 005°04'0 0.0
2019-Aug-22 20:55N 52°38' E 005°04'0 0.0
2019-Aug-22 20:28N 52°38' E 005°04'0 0.0
2019-Aug-22 19:58N 52°38' E 005°04'0 0.0
2019-Aug-22 19:22N 52°38' E 005°04'0 0.0
2019-Aug-22 18:55N 52°38' E 005°04'0 0.0
2019-Aug-22 18:25N 52°38' E 005°04'0 0.0
2019-Aug-22 17:55N 52°38' E 005°04'0 0.0
2019-Aug-22 17:28N 52°38' E 005°04'0 0.0
2019-Aug-22 16:52N 52°38' E 005°04'0 0.0
2019-Aug-22 16:28N 52°38' E 005°04'0 0.0
2019-Aug-22 15:58N 52°38' E 005°04'0 0.0
2019-Aug-22 15:30N 52°38' E 005°04'0 0.4
2019-Aug-22 15:00N 52°38' E 005°04'3 5.2
2019-Aug-22 14:30N 52°36' E 005°06'3 5.3
2019-Aug-22 14:01N 52°34' E 005°09'1 2.6
2019-Aug-22 13:31N 52°35' E 005°09'2 4.1
2019-Aug-22 13:01N 52°37' E 005°09'2 3.6
2019-Aug-22 12:30N 52°36' E 005°11'2 4.3
2019-Aug-22 12:00N 52°35' E 005°15'2 4.6
2019-Aug-22 11:30N 52°34' E 005°18'0 0.9
2019-Aug-22 11:01N 52°34' E 005°19'1 2.9
2019-Aug-22 10:31N 52°35' E 005°17'2 3.3
2019-Aug-22 10:00N 52°36' E 005°15'2 3.8
2019-Aug-22 09:31N 52°38' E 005°13'3 5.4
2019-Aug-22 09:00N 52°40' E 005°16'2 3.7
2019-Aug-22 08:30N 52°42' E 005°18'0 0.5
2019-Aug-22 07:59N 52°42' E 005°17'0 0.0
2019-Aug-22 07:29N 52°42' E 005°17'0 0.0
2019-Aug-22 06:59N 52°42' E 005°17'0 0.0
2019-Aug-22 06:29N 52°42' E 005°17'0 0.0
2019-Aug-22 05:56N 52°42' E 005°17'0 0.0
2019-Aug-22 05:26N 52°42' E 005°17'0 0.0
2019-Aug-22 04:59N 52°42' E 005°17'0 0.0
2019-Aug-22 04:29N 52°42' E 005°17'0 0.0
2019-Aug-22 03:59N 52°42' E 005°17'0 0.0
2019-Aug-22 03:29N 52°42' E 005°17'0 0.0
2019-Aug-22 02:59N 52°42' E 005°17'0 0.0
2019-Aug-22 02:29N 52°42' E 005°17'0 0.0
2019-Aug-22 01:56N 52°42' E 005°17'0 0.0
2019-Aug-22 01:29N 52°42' E 005°17'0 0.0
2019-Aug-22 00:59N 52°42' E 005°17'0 0.0
2019-Aug-22 00:29N 52°42' E 005°17'0 0.0
2019-Aug-21 23:59N 52°42' E 005°17'0 0.0
2019-Aug-21 23:29N 52°42' E 005°17'0 0.0
2019-Aug-21 22:59N 52°42' E 005°17'0 0.0
2019-Aug-21 22:29N 52°42' E 005°17'0 0.0
2019-Aug-21 21:56N 52°42' E 005°17'0 0.0
2019-Aug-21 21:29N 52°42' E 005°17'0 0.0
2019-Aug-21 20:59N 52°42' E 005°17'0 0.0
2019-Aug-21 20:29N 52°42' E 005°17'0 0.0
2019-Aug-21 19:59N 52°42' E 005°17'0 0.0
2019-Aug-21 19:29N 52°42' E 005°17'0 0.0
2019-Aug-21 18:59N 52°42' E 005°17'0 0.0
2019-Aug-21 18:26N 52°42' E 005°17'0 0.0
2019-Aug-21 17:59N 52°42' E 005°17'0 0.0
2019-Aug-21 17:29N 52°42' E 005°17'0 0.0
2019-Aug-21 16:59N 52°42' E 005°17'0 0.0
2019-Aug-21 16:29N 52°42' E 005°17'0 0.0
2019-Aug-21 15:59N 52°42' E 005°17'0 0.0
2019-Aug-21 15:29N 52°42' E 005°17'0 0.0
2019-Aug-21 14:59N 52°42' E 005°17'0 0.0
2019-Aug-21 14:29N 52°42' E 005°17'0 0.0
2019-Aug-21 13:59N 52°42' E 005°17'0 0.0
2019-Aug-21 13:29N 52°42' E 005°17'0 0.0
2019-Aug-21 12:59N 52°42' E 005°17'0 0.0
2019-Aug-21 12:29N 52°42' E 005°17'0 0.0
2019-Aug-21 11:59N 52°42' E 005°17'0 0.0
2019-Aug-21 11:26N 52°42' E 005°17'0 0.0
2019-Aug-21 10:59N 52°42' E 005°17'1 1.5
2019-Aug-21 10:30N 52°42' E 005°18'2 4.3
2019-Aug-21 10:00N 52°44' E 005°19'2 4.6
2019-Aug-21 09:30N 52°47' E 005°19'3 5.2
2019-Aug-21 09:00N 52°49' E 005°20'2 4.6
2019-Aug-21 08:29N 52°52' E 005°20'2 3.7
2019-Aug-21 08:00N 52°53' E 005°21'0 0.0
2019-Aug-21 07:25N 52°53' E 005°21'0 0.0
2019-Aug-21 07:01N 52°53' E 005°21'0 0.0
2019-Aug-21 06:25N 52°53' E 005°21'0 0.0
2019-Aug-21 06:01N 52°53' E 005°21'0 0.0
2019-Aug-21 05:31N 52°53' E 005°21'0 0.0
2019-Aug-21 05:01N 52°53' E 005°21'0 0.0
2019-Aug-21 04:28N 52°53' E 005°21'0 0.0
2019-Aug-21 04:01N 52°53' E 005°21'0 0.0
2019-Aug-21 03:28N 52°53' E 005°21'0 0.0
2019-Aug-21 03:01N 52°53' E 005°21'0 0.0
2019-Aug-21 02:31N 52°53' E 005°21'0 0.0
2019-Aug-21 02:01N 52°53' E 005°21'0 0.0
2019-Aug-21 01:31N 52°53' E 005°21'0 0.0
2019-Aug-21 00:58N 52°53' E 005°21'0 0.0
2019-Aug-21 00:31N 52°53' E 005°21'0 0.0
2019-Aug-21 00:01N 52°53' E 005°21'0 0.0
2019-Aug-20 23:31N 52°53' E 005°21'0 0.0
2019-Aug-20 23:01N 52°53' E 005°21'0 0.0
2019-Aug-20 22:25N 52°53' E 005°21'0 0.0
2019-Aug-20 22:01N 52°53' E 005°21'0 0.0
2019-Aug-20 21:31N 52°53' E 005°21'0 0.0
2019-Aug-20 21:01N 52°53' E 005°21'0 0.0
2019-Aug-20 20:31N 52°53' E 005°21'0 0.0
2019-Aug-20 20:01N 52°53' E 005°21'0 0.0
2019-Aug-20 19:31N 52°53' E 005°21'0 0.0
2019-Aug-20 19:01N 52°53' E 005°21'0 0.0
2019-Aug-20 18:31N 52°53' E 005°21'0 0.0
2019-Aug-20 17:55N 52°53' E 005°21'0 0.0
2019-Aug-20 17:31N 52°53' E 005°21'0 0.0
2019-Aug-20 16:54N 52°53' E 005°21'0 0.0
2019-Aug-20 16:28N 52°53' E 005°21'0 0.0
2019-Aug-20 15:58N 52°53' E 005°21'0 0.0
2019-Aug-20 15:31N 52°53' E 005°21'0 0.0
2019-Aug-20 15:01N 52°53' E 005°21'0 0.0
2019-Aug-20 14:31N 52°53' E 005°21'0 0.0
2019-Aug-20 14:00N 52°53' E 005°21'1 1.7
2019-Aug-20 13:30N 52°53' E 005°20'2 4.8
2019-Aug-20 13:00N 52°51' E 005°18'1 2.0
2019-Aug-20 12:30N 52°50' E 005°18'3 5.6
2019-Aug-20 12:00N 52°53' E 005°18'3 6.5
2019-Aug-20 11:30N 52°56' E 005°19'3 6.4
2019-Aug-20 11:00N 52°59' E 005°20'3 5.7
2019-Aug-20 10:30N 53°02' E 005°21'2 3.4
2019-Aug-20 10:00N 53°03' E 005°21'1 2.2
2019-Aug-20 09:30N 53°05' E 005°20'1 2.4
2019-Aug-20 09:00N 53°05' E 005°21'3 5.3
2019-Aug-20 08:30N 53°08' E 005°23'1 2.9
2019-Aug-20 08:00N 53°09' E 005°23'2 3.7
2019-Aug-20 07:30N 53°11' E 005°24'0 0.1
2019-Aug-20 06:58N 53°11' E 005°24'0 0.1
2019-Aug-20 06:28N 53°11' E 005°24'0 0.1
2019-Aug-20 05:58N 53°11' E 005°24'0 0.0
2019-Aug-20 05:28N 53°11' E 005°24'0 0.0
2019-Aug-20 04:58N 53°11' E 005°24'0 0.0
2019-Aug-20 04:28N 53°11' E 005°24'0 0.0
2019-Aug-20 03:58N 53°11' E 005°24'0 0.0
2019-Aug-20 03:28N 53°11' E 005°24'0 0.0
2019-Aug-20 02:58N 53°11' E 005°24'0 0.1
2019-Aug-20 02:28N 53°11' E 005°24'0 0.1
2019-Aug-20 01:58N 53°11' E 005°24'0 0.0
2019-Aug-20 01:28N 53°11' E 005°24'0 0.1
2019-Aug-20 00:58N 53°11' E 005°24'0 0.0
2019-Aug-20 00:28N 53°11' E 005°24'0 0.0
2019-Aug-19 23:58N 53°11' E 005°24'0 0.0
2019-Aug-19 23:28N 53°11' E 005°24'0 0.0
2019-Aug-19 22:58N 53°11' E 005°24'0 0.0
2019-Aug-19 22:28N 53°11' E 005°24'0 0.0
2019-Aug-19 21:58N 53°11' E 005°24'0 0.0
2019-Aug-19 21:28N 53°11' E 005°24'0 0.0
2019-Aug-19 20:58N 53°11' E 005°24'0 0.0
2019-Aug-19 20:28N 53°11' E 005°24'0 0.0
2019-Aug-19 19:58N 53°11' E 005°24'0 0.0
2019-Aug-19 19:28N 53°11' E 005°24'0 0.0
2019-Aug-19 18:55N 53°11' E 005°24'1 1.8
2019-Aug-19 18:30N 53°11' E 005°23'2 3.2
2019-Aug-19 18:00N 53°11' E 005°21'1 2.6
2019-Aug-19 17:30N 53°12' E 005°19'2 3.6
2019-Aug-19 17:00N 53°13' E 005°17'2 5.0
2019-Aug-19 16:30N 53°14' E 005°13'2 4.5
2019-Aug-19 16:00N 53°15' E 005°10'1 2.8
2019-Aug-19 15:30N 53°16' E 005°10'4 7.3
2019-Aug-19 14:58N 53°19' E 005°15'3 5.7
2019-Aug-19 14:30N 53°21' E 005°12'1 1.1
2019-Aug-19 13:42N 53°22' E 005°13'0 0.0
2019-Aug-19 13:30N 53°22' E 005°13'0 0.0
2019-Aug-19 12:54N 53°22' E 005°13'0 0.0
2019-Aug-19 12:24N 53°22' E 005°13'0 0.0
2019-Aug-19 11:48N 53°22' E 005°13'0 0.0
2019-Aug-19 11:24N 53°22' E 005°13'0 0.0
2019-Aug-19 10:42N 53°22' E 005°13'0 0.0
2019-Aug-19 10:06N 53°22' E 005°13'0 0.0
2019-Aug-19 10:00N 53°22' E 005°13'0 0.0
2019-Aug-19 09:18N 53°22' E 005°13'0 0.0
2019-Aug-19 08:42N 53°22' E 005°13'0 0.0
2019-Aug-19 08:30N 53°22' E 005°13'0 0.0
2019-Aug-19 08:00N 53°22' E 005°13'0 0.0
2019-Aug-19 07:18N 53°22' E 005°13'0 0.0
2019-Aug-19 06:54N 53°22' E 005°13'0 0.0
2019-Aug-19 06:06N 53°22' E 005°13'0 0.0
2019-Aug-19 05:36N 53°22' E 005°13'0 0.0
2019-Aug-19 04:42N 53°22' E 005°13'0 0.0
2019-Aug-19 04:12N 53°22' E 005°13'0 0.0
2019-Aug-19 03:54N 53°22' E 005°13'0 0.0
2019-Aug-19 03:24N 53°22' E 005°13'0 0.0
2019-Aug-19 03:00N 53°22' E 005°13'0 0.0
2019-Aug-19 02:24N 53°22' E 005°13'0 0.0
2019-Aug-19 02:00N 53°22' E 005°13'0 0.0
2019-Aug-19 01:30N 53°22' E 005°13'0 0.0
2019-Aug-19 01:00N 53°22' E 005°13'0 0.0
2019-Aug-19 00:30N 53°22' E 005°13'0 0.0
2019-Aug-18 23:42N 53°22' E 005°13'0 0.0
2019-Aug-18 23:24N 53°22' E 005°13'0 0.0
2019-Aug-18 22:48N 53°22' E 005°13'0 0.0
2019-Aug-18 22:30N 53°22' E 005°13'0 0.0
2019-Aug-18 21:18N 53°22' E 005°13'0 0.0
2019-Aug-18 20:48N 53°22' E 005°13'0 0.0
2019-Aug-18 20:18N 53°22' E 005°13'0 0.0
2019-Aug-18 19:54N 53°22' E 005°13'0 0.0
2019-Aug-18 19:11N 53°22' E 005°13'0 1.0
2019-Aug-18 19:00N 53°22' E 005°13'2 2.9
2019-Aug-18 18:28N 53°20' E 005°13'2 3.5
2019-Aug-18 17:58N 53°19' E 005°15'4 7.8
2019-Aug-18 17:25N 53°19' E 005°08'24 6.5
2019-Aug-18 13:38N 52°60' E 004°43'1 7.4
2019-Aug-18 13:30N 52°59' E 004°43'5 6.2
2019-Aug-18 12:41N 53°01' E 004°50'1 0.0
2019-Aug-17 13:19N 53°02' E 004°51'1 1.6
2019-Aug-17 12:48N 53°02' E 004°51'4 2.1
2019-Aug-17 10:47N 52°59' E 004°46'1 3.3
2019-Aug-17 10:30N 52°58' E 004°47'1 1.6
2019-Aug-17 09:48N 52°57' E 004°47'1 1.5
2019-Aug-17 09:26N 52°57' E 004°47'  
Track history (hours):
 
Tides and Currents Weather Stations Pressure Air Temp Water Temp Dewpoint Dewpoint Depression Visibility Wind Speed Wind Dir Waves Ship Positions

Morgenster

Last reported at 2019-Aug-24 19:24 UTC. Time now 2019-Aug-24 19:57 UTC.
Position N 52°23' E 004°53'.

Length 38 m; draft 2.4 m.

Type: Sailing vessel. MMSI: 245136000.

Date/timePositionNaut miles runAvg speedWind from/ knotsBaromVisibWave heightAir tempDewpointWater temp
2019-Aug-24 19:24N 52°23' E 004°53'0 0.0
2019-Aug-24 19:00N 52°23' E 004°53'0 0.0
2019-Aug-24 18:03N 52°23' E 004°53'0 0.0
2019-Aug-24 17:51N 52°23' E 004°53'0 0.0
2019-Aug-24 17:30N 52°23' E 004°53'0 0.0
2019-Aug-24 16:57N 52°23' E 004°53'0 0.0
2019-Aug-24 15:57N 52°23' E 004°53'0 0.0
2019-Aug-24 15:24N 52°23' E 004°53'0 1.3
2019-Aug-24 15:00N 52°23' E 004°54'2 4.7
2019-Aug-24 14:31N 52°23' E 004°58'1 1.9
2019-Aug-24 14:00N 52°22' E 004°59'2 5.0
2019-Aug-24 13:30N 52°23' E 005°03'3 5.3
2019-Aug-24 13:00N 52°25' E 005°06'2 4.6
2019-Aug-24 12:30N 52°27' E 005°08'1 2.7
2019-Aug-24 12:00N 52°27' E 005°10'1 1.3
2019-Aug-24 11:30N 52°28' E 005°10'0 0.6
2019-Aug-24 11:01N 52°28' E 005°10'1 1.8
2019-Aug-24 10:30N 52°29' E 005°10'1 1.9
2019-Aug-24 10:00N 52°30' E 005°10'1 1.4
2019-Aug-24 09:31N 52°31' E 005°10'2 4.6
2019-Aug-24 09:00N 52°30' E 005°06'2 3.0
2019-Aug-24 08:30N 52°28' E 005°05'1 1.7
2019-Aug-24 08:00N 52°28' E 005°06'0 0.3
2019-Aug-24 07:30N 52°28' E 005°06'0 0.0
2019-Aug-24 06:57N 52°28' E 005°06'0 0.0
2019-Aug-24 06:27N 52°28' E 005°06'0 0.0
2019-Aug-24 06:00N 52°28' E 005°06'0 0.0
2019-Aug-24 05:30N 52°28' E 005°06'0 0.0
2019-Aug-24 05:00N 52°28' E 005°06'0 0.0
2019-Aug-24 04:27N 52°28' E 005°06'0 0.0
2019-Aug-24 04:00N 52°28' E 005°06'0 0.0
2019-Aug-24 03:30N 52°28' E 005°06'0 0.0
2019-Aug-24 02:54N 52°28' E 005°06'0 0.0
2019-Aug-24 02:24N 52°28' E 005°06'0 0.0
2019-Aug-24 01:57N 52°28' E 005°06'0 0.0
2019-Aug-24 01:30N 52°28' E 005°06'0 0.0
2019-Aug-24 00:57N 52°28' E 005°06'0 0.0
2019-Aug-24 00:21N 52°28' E 005°06'0 0.0
2019-Aug-24 00:00N 52°28' E 005°06'0 0.0
2019-Aug-23 23:30N 52°28' E 005°06'0 0.0
2019-Aug-23 22:57N 52°28' E 005°06'0 0.0
2019-Aug-23 22:27N 52°28' E 005°06'0 0.0
2019-Aug-23 22:00N 52°28' E 005°06'0 0.0
2019-Aug-23 21:30N 52°28' E 005°06'0 0.0
2019-Aug-23 21:00N 52°28' E 005°06'0 0.0
2019-Aug-23 20:30N 52°28' E 005°06'0 0.0
2019-Aug-23 20:00N 52°28' E 005°06'0 0.0
2019-Aug-23 19:27N 52°28' E 005°06'0 0.0
2019-Aug-23 19:00N 52°28' E 005°06'0 0.0
2019-Aug-23 18:30N 52°28' E 005°06'0 0.0
2019-Aug-23 18:00N 52°28' E 005°06'0 0.0
2019-Aug-23 17:30N 52°28' E 005°06'0 0.0
2019-Aug-23 16:57N 52°28' E 005°06'0 0.0
2019-Aug-23 16:30N 52°28' E 005°06'0 0.0
2019-Aug-23 16:00N 52°28' E 005°06'0 0.0
2019-Aug-23 15:30N 52°28' E 005°06'0 0.0
2019-Aug-23 15:00N 52°28' E 005°06'0 0.0
2019-Aug-23 14:30N 52°28' E 005°06'0 0.0
2019-Aug-23 14:00N 52°28' E 005°06'0 0.0
2019-Aug-23 13:30N 52°28' E 005°06'0 0.0
2019-Aug-23 12:57N 52°28' E 005°06'0 0.0
2019-Aug-23 12:30N 52°28' E 005°06'0 0.0
2019-Aug-23 12:00N 52°28' E 005°06'0 0.0
2019-Aug-23 11:30N 52°28' E 005°06'1 2.0
2019-Aug-23 11:00N 52°28' E 005°05'2 4.7
2019-Aug-23 10:30N 52°31' E 005°06'2 4.9
2019-Aug-23 10:00N 52°33' E 005°05'3 5.1
2019-Aug-23 09:30N 52°36' E 005°05'3 4.9
2019-Aug-23 08:58N 52°38' E 005°04'0 0.0
2019-Aug-23 08:25N 52°38' E 005°04'0 0.0
2019-Aug-23 07:55N 52°38' E 005°04'0 0.0
2019-Aug-23 07:22N 52°38' E 005°04'0 0.0
2019-Aug-23 06:58N 52°38' E 005°04'0 0.0
2019-Aug-23 06:25N 52°38' E 005°04'0 0.0
2019-Aug-23 05:58N 52°38' E 005°04'0 0.0
2019-Aug-23 05:25N 52°38' E 005°04'0 0.0
2019-Aug-23 04:58N 52°38' E 005°04'0 0.0
2019-Aug-23 04:28N 52°38' E 005°04'0 0.0
2019-Aug-23 03:58N 52°38' E 005°04'0 0.0
2019-Aug-23 03:28N 52°38' E 005°04'0 0.0
2019-Aug-23 02:43N 52°38' E 005°04'0 0.0
2019-Aug-23 02:28N 52°38' E 005°04'0 0.0
2019-Aug-23 01:55N 52°38' E 005°04'0 0.0
2019-Aug-23 01:28N 52°38' E 005°04'0 0.0
2019-Aug-23 00:58N 52°38' E 005°04'0 0.0
2019-Aug-23 00:28N 52°38' E 005°04'0 0.0
2019-Aug-22 23:55N 52°38' E 005°04'0 0.0
2019-Aug-22 23:28N 52°38' E 005°04'0 0.0
2019-Aug-22 22:58N 52°38' E 005°04'0 0.0
2019-Aug-22 22:28N 52°38' E 005°04'0 0.0
2019-Aug-22 21:58N 52°38' E 005°04'0 0.0
2019-Aug-22 21:28N 52°38' E 005°04'0 0.0
2019-Aug-22 20:55N 52°38' E 005°04'0 0.0
2019-Aug-22 20:28N 52°38' E 005°04'0 0.0
2019-Aug-22 19:58N 52°38' E 005°04'0 0.0
2019-Aug-22 19:22N 52°38' E 005°04'0 0.0
2019-Aug-22 18:55N 52°38' E 005°04'0 0.0
2019-Aug-22 18:25N 52°38' E 005°04'0 0.0
2019-Aug-22 17:55N 52°38' E 005°04'0 0.0
2019-Aug-22 17:28N 52°38' E 005°04'0 0.0
2019-Aug-22 16:52N 52°38' E 005°04'0 0.0
2019-Aug-22 16:28N 52°38' E 005°04'0 0.0
2019-Aug-22 15:58N 52°38' E 005°04'0 0.0
2019-Aug-22 15:30N 52°38' E 005°04'0 0.4
2019-Aug-22 15:00N 52°38' E 005°04'3 5.2
2019-Aug-22 14:30N 52°36' E 005°06'3 5.3
2019-Aug-22 14:01N 52°34' E 005°09'1 2.6
2019-Aug-22 13:31N 52°35' E 005°09'2 4.1
2019-Aug-22 13:01N 52°37' E 005°09'2 3.6
2019-Aug-22 12:30N 52°36' E 005°11'2 4.3
2019-Aug-22 12:00N 52°35' E 005°15'2 4.6
2019-Aug-22 11:30N 52°34' E 005°18'0 0.9
2019-Aug-22 11:01N 52°34' E 005°19'1 2.9
2019-Aug-22 10:31N 52°35' E 005°17'2 3.3
2019-Aug-22 10:00N 52°36' E 005°15'2 3.8
2019-Aug-22 09:31N 52°38' E 005°13'3 5.4
2019-Aug-22 09:00N 52°40' E 005°16'2 3.7
2019-Aug-22 08:30N 52°42' E 005°18'0 0.5
2019-Aug-22 07:59N 52°42' E 005°17'0 0.0
2019-Aug-22 07:29N 52°42' E 005°17'0 0.0
2019-Aug-22 06:59N 52°42' E 005°17'0 0.0
2019-Aug-22 06:29N 52°42' E 005°17'0 0.0
2019-Aug-22 05:56N 52°42' E 005°17'0 0.0
2019-Aug-22 05:26N 52°42' E 005°17'0 0.0
2019-Aug-22 04:59N 52°42' E 005°17'0 0.0
2019-Aug-22 04:29N 52°42' E 005°17'0 0.0
2019-Aug-22 03:59N 52°42' E 005°17'0 0.0
2019-Aug-22 03:29N 52°42' E 005°17'0 0.0
2019-Aug-22 02:59N 52°42' E 005°17'0 0.0
2019-Aug-22 02:29N 52°42' E 005°17'0 0.0
2019-Aug-22 01:56N 52°42' E 005°17'0 0.0
2019-Aug-22 01:29N 52°42' E 005°17'0 0.0
2019-Aug-22 00:59N 52°42' E 005°17'0 0.0
2019-Aug-22 00:29N 52°42' E 005°17'0 0.0
2019-Aug-21 23:59N 52°42' E 005°17'0 0.0
2019-Aug-21 23:29N 52°42' E 005°17'0 0.0
2019-Aug-21 22:59N 52°42' E 005°17'0 0.0
2019-Aug-21 22:29N 52°42' E 005°17'0 0.0
2019-Aug-21 21:56N 52°42' E 005°17'0 0.0
2019-Aug-21 21:29N 52°42' E 005°17'0 0.0
2019-Aug-21 20:59N 52°42' E 005°17'0 0.0
2019-Aug-21 20:29N 52°42' E 005°17'0 0.0
2019-Aug-21 19:59N 52°42' E 005°17'0 0.0
2019-Aug-21 19:29N 52°42' E 005°17'0 0.0
2019-Aug-21 18:59N 52°42' E 005°17'0 0.0
2019-Aug-21 18:26N 52°42' E 005°17'0 0.0
2019-Aug-21 17:59N 52°42' E 005°17'0 0.0
2019-Aug-21 17:29N 52°42' E 005°17'0 0.0
2019-Aug-21 16:59N 52°42' E 005°17'0 0.0
2019-Aug-21 16:29N 52°42' E 005°17'0 0.0
2019-Aug-21 15:59N 52°42' E 005°17'0 0.0
2019-Aug-21 15:29N 52°42' E 005°17'0 0.0
2019-Aug-21 14:59N 52°42' E 005°17'0 0.0
2019-Aug-21 14:29N 52°42' E 005°17'0 0.0
2019-Aug-21 13:59N 52°42' E 005°17'0 0.0
2019-Aug-21 13:29N 52°42' E 005°17'0 0.0
2019-Aug-21 12:59N 52°42' E 005°17'0 0.0
2019-Aug-21 12:29N 52°42' E 005°17'0 0.0
2019-Aug-21 11:59N 52°42' E 005°17'0 0.0
2019-Aug-21 11:26N 52°42' E 005°17'0 0.0
2019-Aug-21 10:59N 52°42' E 005°17'1 1.5
2019-Aug-21 10:30N 52°42' E 005°18'2 4.3
2019-Aug-21 10:00N 52°44' E 005°19'2 4.6
2019-Aug-21 09:30N 52°47' E 005°19'3 5.2
2019-Aug-21 09:00N 52°49' E 005°20'2 4.6
2019-Aug-21 08:29N 52°52' E 005°20'2 3.7
2019-Aug-21 08:00N 52°53' E 005°21'0 0.0
2019-Aug-21 07:25N 52°53' E 005°21'0 0.0
2019-Aug-21 07:01N 52°53' E 005°21'0 0.0
2019-Aug-21 06:25N 52°53' E 005°21'0 0.0
2019-Aug-21 06:01N 52°53' E 005°21'0 0.0
2019-Aug-21 05:31N 52°53' E 005°21'0 0.0
2019-Aug-21 05:01N 52°53' E 005°21'0 0.0
2019-Aug-21 04:28N 52°53' E 005°21'0 0.0
2019-Aug-21 04:01N 52°53' E 005°21'0 0.0
2019-Aug-21 03:28N 52°53' E 005°21'0 0.0
2019-Aug-21 03:01N 52°53' E 005°21'0 0.0
2019-Aug-21 02:31N 52°53' E 005°21'0 0.0
2019-Aug-21 02:01N 52°53' E 005°21'0 0.0
2019-Aug-21 01:31N 52°53' E 005°21'0 0.0
2019-Aug-21 00:58N 52°53' E 005°21'0 0.0
2019-Aug-21 00:31N 52°53' E 005°21'0 0.0
2019-Aug-21 00:01N 52°53' E 005°21'0 0.0
2019-Aug-20 23:31N 52°53' E 005°21'0 0.0
2019-Aug-20 23:01N 52°53' E 005°21'0 0.0
2019-Aug-20 22:25N 52°53' E 005°21'0 0.0
2019-Aug-20 22:01N 52°53' E 005°21'0 0.0
2019-Aug-20 21:31N 52°53' E 005°21'0 0.0
2019-Aug-20 21:01N 52°53' E 005°21'0 0.0
2019-Aug-20 20:31N 52°53' E 005°21'0 0.0
2019-Aug-20 20:01N 52°53' E 005°21'0 0.0
2019-Aug-20 19:31N 52°53' E 005°21'0 0.0
2019-Aug-20 19:01N 52°53' E 005°21'0 0.0
2019-Aug-20 18:31N 52°53' E 005°21'0 0.0
2019-Aug-20 17:55N 52°53' E 005°21'0 0.0
2019-Aug-20 17:31N 52°53' E 005°21'0 0.0
2019-Aug-20 16:54N 52°53' E 005°21'0 0.0
2019-Aug-20 16:28N 52°53' E 005°21'0 0.0
2019-Aug-20 15:58N 52°53' E 005°21'0 0.0
2019-Aug-20 15:31N 52°53' E 005°21'0 0.0
2019-Aug-20 15:01N 52°53' E 005°21'0 0.0
2019-Aug-20 14:31N 52°53' E 005°21'0 0.0
2019-Aug-20 14:00N 52°53' E 005°21'1 1.7
2019-Aug-20 13:30N 52°53' E 005°20'2 4.8
2019-Aug-20 13:00N 52°51' E 005°18'1 2.0
2019-Aug-20 12:30N 52°50' E 005°18'3 5.6
2019-Aug-20 12:00N 52°53' E 005°18'3 6.5
2019-Aug-20 11:30N 52°56' E 005°19'3 6.4
2019-Aug-20 11:00N 52°59' E 005°20'3 5.7
2019-Aug-20 10:30N 53°02' E 005°21'2 3.4
2019-Aug-20 10:00N 53°03' E 005°21'1 2.2
2019-Aug-20 09:30N 53°05' E 005°20'1 2.4
2019-Aug-20 09:00N 53°05' E 005°21'3 5.3
2019-Aug-20 08:30N 53°08' E 005°23'1 2.9
2019-Aug-20 08:00N 53°09' E 005°23'2 3.7
2019-Aug-20 07:30N 53°11' E 005°24'0 0.1
2019-Aug-20 06:58N 53°11' E 005°24'0 0.1
2019-Aug-20 06:28N 53°11' E 005°24'0 0.1
2019-Aug-20 05:58N 53°11' E 005°24'0 0.0
2019-Aug-20 05:28N 53°11' E 005°24'0 0.0
2019-Aug-20 04:58N 53°11' E 005°24'0 0.0
2019-Aug-20 04:28N 53°11' E 005°24'0 0.0
2019-Aug-20 03:58N 53°11' E 005°24'0 0.0
2019-Aug-20 03:28N 53°11' E 005°24'0 0.0
2019-Aug-20 02:58N 53°11' E 005°24'0 0.1
2019-Aug-20 02:28N 53°11' E 005°24'0 0.1
2019-Aug-20 01:58N 53°11' E 005°24'0 0.0
2019-Aug-20 01:28N 53°11' E 005°24'0 0.1
2019-Aug-20 00:58N 53°11' E 005°24'0 0.0
2019-Aug-20 00:28N 53°11' E 005°24'0 0.0
2019-Aug-19 23:58N 53°11' E 005°24'0 0.0
2019-Aug-19 23:28N 53°11' E 005°24'0 0.0
2019-Aug-19 22:58N 53°11' E 005°24'0 0.0
2019-Aug-19 22:28N 53°11' E 005°24'0 0.0
2019-Aug-19 21:58N 53°11' E 005°24'0 0.0
2019-Aug-19 21:28N 53°11' E 005°24'0 0.0
2019-Aug-19 20:58N 53°11' E 005°24'0 0.0
2019-Aug-19 20:28N 53°11' E 005°24'0 0.0
2019-Aug-19 19:58N 53°11' E 005°24'0 0.0
2019-Aug-19 19:28N 53°11' E 005°24'0 0.0
2019-Aug-19 18:55N 53°11' E 005°24'1 1.8
2019-Aug-19 18:30N 53°11' E 005°23'2 3.2
2019-Aug-19 18:00N 53°11' E 005°21'1 2.6
2019-Aug-19 17:30N 53°12' E 005°19'2 3.6
2019-Aug-19 17:00N 53°13' E 005°17'2 5.0
2019-Aug-19 16:30N 53°14' E 005°13'2 4.5
2019-Aug-19 16:00N 53°15' E 005°10'1 2.8
2019-Aug-19 15:30N 53°16' E 005°10'4 7.3
2019-Aug-19 14:58N 53°19' E 005°15'3 5.7
2019-Aug-19 14:30N 53°21' E 005°12'1 1.1
2019-Aug-19 13:42N 53°22' E 005°13'0 0.0
2019-Aug-19 13:30N 53°22' E 005°13'0 0.0
2019-Aug-19 12:54N 53°22' E 005°13'0 0.0
2019-Aug-19 12:24N 53°22' E 005°13'0 0.0
2019-Aug-19 11:48N 53°22' E 005°13'0 0.0
2019-Aug-19 11:24N 53°22' E 005°13'0 0.0
2019-Aug-19 10:42N 53°22' E 005°13'0 0.0
2019-Aug-19 10:06N 53°22' E 005°13'0 0.0
2019-Aug-19 10:00N 53°22' E 005°13'0 0.0
2019-Aug-19 09:18N 53°22' E 005°13'0 0.0
2019-Aug-19 08:42N 53°22' E 005°13'0 0.0
2019-Aug-19 08:30N 53°22' E 005°13'0 0.0
2019-Aug-19 08:00N 53°22' E 005°13'0 0.0
2019-Aug-19 07:18N 53°22' E 005°13'0 0.0
2019-Aug-19 06:54N 53°22' E 005°13'0 0.0
2019-Aug-19 06:06N 53°22' E 005°13'0 0.0
2019-Aug-19 05:36N 53°22' E 005°13'0 0.0
2019-Aug-19 04:42N 53°22' E 005°13'0 0.0
2019-Aug-19 04:12N 53°22' E 005°13'0 0.0
2019-Aug-19 03:54N 53°22' E 005°13'0 0.0
2019-Aug-19 03:24N 53°22' E 005°13'0 0.0
2019-Aug-19 03:00N 53°22' E 005°13'0 0.0
2019-Aug-19 02:24N 53°22' E 005°13'0 0.0
2019-Aug-19 02:00N 53°22' E 005°13'0 0.0
2019-Aug-19 01:30N 53°22' E 005°13'0 0.0
2019-Aug-19 01:00N 53°22' E 005°13'0 0.0
2019-Aug-19 00:30N 53°22' E 005°13'0 0.0
2019-Aug-18 23:42N 53°22' E 005°13'0 0.0
2019-Aug-18 23:24N 53°22' E 005°13'0 0.0
2019-Aug-18 22:48N 53°22' E 005°13'0 0.0
2019-Aug-18 22:30N 53°22' E 005°13'0 0.0
2019-Aug-18 21:18N 53°22' E 005°13'0 0.0
2019-Aug-18 20:48N 53°22' E 005°13'0 0.0
2019-Aug-18 20:18N 53°22' E 005°13'0 0.0
2019-Aug-18 19:54N 53°22' E 005°13'0 0.0
2019-Aug-18 19:11N 53°22' E 005°13'0 1.0
2019-Aug-18 19:00N 53°22' E 005°13'2 2.9
2019-Aug-18 18:28N 53°20' E 005°13'2 3.5
2019-Aug-18 17:58N 53°19' E 005°15'4 7.8
2019-Aug-18 17:25N 53°19' E 005°08'24 6.5
2019-Aug-18 13:38N 52°60' E 004°43'1 7.4
2019-Aug-18 13:30N 52°59' E 004°43'5 6.2
2019-Aug-18 12:41N 53°01' E 004°50'1 0.0
2019-Aug-17 13:19N 53°02' E 004°51'1 1.6
2019-Aug-17 12:48N 53°02' E 004°51'4 2.1
2019-Aug-17 10:47N 52°59' E 004°46'1 3.3
2019-Aug-17 10:30N 52°58' E 004°47'1 1.6
2019-Aug-17 09:48N 52°57' E 004°47'1 1.5
2019-Aug-17 09:26N 52°57' E 004°47'  

Dump ship's entire track history